Weesatche, Texas
Current Conditions -  °F | °C
As of 7:51 PM on Friday 28 Nov 2014 (Local Time) from KVCT Reporting Station
Clear Clear  
Wind Chill: 58°   Ceiling: Unl
Heat Index: 58°   Visibility: 10mi
Dew Point: 53°   Wind: 7mph
Humidity: 84%   Direction: 160°SSE
Pressure: 30.16"   Gusts: NA
Location:  28.85°N, 97.45°W
Report Text: KVCT 290151Z 16006KT 10SM CLR 14/12 A3016 RMK AO2 SLP212 T01440117
Loading
Personal Weather Stations






























Interactive Weather Map New forecast layout! Learn more

10-Day Weather Forecast

Advertisements
Track Severe Weather on mobile